Terminal Aerodrome Forecast
Issued by NWS

Home | Current Version | Previous Version | Text Only | Print | Product List | Glossary On
Versions: 1 2 3 4 5 6 7 8 9 10 11 12 13 14 15 16 17
000
FTUS45 KRIW 141600 AAC
TAFBPI
TAF AMD
KBPI 141642Z 1417/1512 VRB05KT P6SM OVC011
     FM141800 VRB05KT P6SM SCT010
     FM141900 VRB06KT P6SM SKC
     FM142300 34008KT P6SM SCT250=

USA.gov is the U.S. government's official web portal to all federal, state and local government web resources and services.